Time;durP1;ratioP1;P1;durP2;ratioP2;P2;SDS_P1;SDS_P2;PMS_P1;PMS_P2;Temp;Humidity;BMP_temperature;BMP_pressure;BME280_temperature;BME280_humidity;BME280_pressure;Samples;Min_cycle;Max_cycle;Signal;HPM_P1;HPM_P2
2023/07/20 00:01:12;;;;;;;2.50;1.50;;;;;;;23.65;42.25;100216.22;5064662;28;20415;-76
2023/07/20 00:03:38;;;;;;;2.40;2.00;;;;;;;23.61;42.29;100213.31;5064762;28;20525;-77
2023/07/20 00:06:04;;;;;;;2.00;1.67;;;;;;;23.62;42.60;100216.91;5061625;28;20438;-77
2023/07/20 00:08:29;;;;;;;4.10;2.13;;;;;;;23.61;42.54;100216.09;5060150;28;20439;-77
2023/07/20 00:10:54;;;;;;;4.27;1.73;;;;;;;23.59;42.62;100225.88;5060975;28;20462;-76
2023/07/20 00:13:20;;;;;;;6.47;1.90;;;;;;;23.61;43.00;100224.38;5060851;28;20439;-76
2023/07/20 00:15:46;;;;;;;5.50;2.00;;;;;;;23.61;42.92;100221.63;5061585;28;20561;-77
2023/07/20 00:18:11;;;;;;;4.50;2.10;;;;;;;23.49;42.69;100215.22;5065497;28;20439;-76
2023/07/20 00:20:37;;;;;;;1.60;1.50;;;;;;;23.41;43.16;100225.22;5047849;28;20461;-76
2023/07/20 00:23:02;;;;;;;1.73;1.50;;;;;;;23.38;43.20;100225.81;5078426;28;20401;-76
2023/07/20 00:25:27;;;;;;;3.13;1.53;;;;;;;23.36;43.27;100224.56;5060641;28;20809;-77
2023/07/20 00:27:52;;;;;;;2.55;1.42;;;;;;;23.24;43.38;100225.28;5063885;28;20439;-76
2023/07/20 00:30:18;;;;;;;4.38;1.90;;;;;;;23.13;43.52;100219.34;5063739;28;20414;-77
2023/07/20 00:32:44;;;;;;;5.77;1.90;;;;;;;23.18;43.82;100234.94;5060571;28;21729;-77
2023/07/20 00:35:11;;;;;;;2.80;1.92;;;;;;;23.23;43.73;100220.91;5062602;28;20515;-77
2023/07/20 00:37:36;;;;;;;1.83;1.70;;;;;;;23.14;44.08;100222.91;5048601;28;20976;-76
2023/07/20 00:40:04;;;;;;;4.25;1.88;;;;;;;23.07;43.96;100219.84;5049207;28;20490;-77
2023/07/20 00:42:30;;;;;;;3.35;1.70;;;;;;;22.99;43.90;100217.94;5047768;28;20805;-76
2023/07/20 00:44:56;;;;;;;4.00;1.90;;;;;;;22.97;43.90;100215.53;5061630;28;20409;-76
2023/07/20 00:47:21;;;;;;;1.73;1.63;;;;;;;22.93;43.89;100222.84;5068286;28;20592;-76
2023/07/20 00:49:47;;;;;;;1.77;1.67;;;;;;;22.96;44.28;100216.66;5060426;28;20417;-77
2023/07/20 00:52:14;;;;;;;4.75;2.13;;;;;;;23.01;44.57;100216.47;5055768;28;20467;-76
2023/07/20 00:54:40;;;;;;;4.78;2.00;;;;;;;23.07;44.47;100217.91;5062066;28;20837;-77
2023/07/20 00:57:07;;;;;;;4.97;1.85;;;;;;;23.07;44.42;100217.09;5058407;28;20535;-76
2023/07/20 00:59:34;;;;;;;1.90;1.65;;;;;;;23.05;44.47;100224.91;5060163;28;20429;-77
2023/07/20 01:01:59;;;;;;;2.37;1.83;;;;;;;23.04;44.62;100218.56;5063141;28;20423;-77
2023/07/20 01:04:27;;;;;;;1.98;1.80;;;;;;;23.03;44.62;100224.41;5047814;28;20409;-76
2023/07/20 01:07:17;;;;;;;2.45;1.80;;;;;;;23.00;44.78;100219.56;5046631;28;20413;-77
2023/07/20 01:09:48;;;;;;;1.83;1.73;;;;;;;22.96;44.86;100224.94;5074785;28;20468;-76
2023/07/20 01:12:26;;;;;;;4.65;1.92;;;;;;;22.93;44.92;100225.63;5063135;28;20409;-76
2023/07/20 01:14:51;;;;;;;2.85;1.80;;;;;;;22.88;45.07;100227.75;5061275;28;20485;-76
2023/07/20 01:17:16;;;;;;;3.10;1.70;;;;;;;22.84;45.50;100224.03;5060051;28;20415;-76
2023/07/20 01:19:42;;;;;;;2.50;1.90;;;;;;;22.84;45.50;100215.75;5058242;28;20461;-77
2023/07/20 01:22:21;;;;;;;5.07;2.60;;;;;;;22.77;45.97;100219.03;5046123;28;20408;-77
2023/07/20 01:25:10;;;;;;;3.27;1.80;;;;;;;22.65;45.97;100213.38;5057668;28;20417;-76
2023/07/20 01:28:00;;;;;;;2.53;1.98;;;;;;;22.52;46.53;100220.72;5057147;28;20736;-76
2023/07/20 01:30:31;;;;;;;2.75;1.90;;;;;;;22.47;46.76;100211.78;5059960;28;20418;-77
2023/07/20 01:32:58;;;;;;;3.22;2.20;;;;;;;22.45;46.85;100216.84;5061281;28;20479;-77
2023/07/20 01:35:28;;;;;;;6.72;2.17;;;;;;;22.43;47.01;100219.09;5058467;28;20415;-77
2023/07/20 01:37:54;;;;;;;3.60;2.42;;;;;;;22.40;47.22;100217.00;5038434;28;20730;-77
2023/07/20 01:40:19;;;;;;;3.30;2.10;;;;;;;22.36;47.54;100216.84;5076814;28;20757;-76
2023/07/20 01:42:46;;;;;;;2.22;1.77;;;;;;;22.30;47.63;100217.34;5058624;28;20404;-77
2023/07/20 01:45:11;;;;;;;4.83;2.10;;;;;;;22.20;48.01;100213.81;5059502;28;20420;-77
2023/07/20 01:47:37;;;;;;;2.78;1.92;;;;;;;22.16;48.18;100218.34;5047584;28;20411;-76
2023/07/20 01:50:02;;;;;;;3.53;1.87;;;;;;;22.11;48.05;100214.97;5064944;28;20951;-76
2023/07/20 01:52:27;;;;;;;2.33;1.90;;;;;;;22.07;48.12;100214.00;5038487;28;20502;-76
2023/07/20 01:54:53;;;;;;;1.80;1.60;;;;;;;22.18;48.07;100207.81;5039882;28;20504;-77
2023/07/20 01:57:18;;;;;;;3.03;2.33;;;;;;;22.13;47.97;100207.16;5062112;28;20498;-77
2023/07/20 01:59:43;;;;;;;2.93;2.30;;;;;;;22.08;48.22;100219.19;5061763;28;20411;-77
2023/07/20 02:02:09;;;;;;;3.27;1.97;;;;;;;22.03;48.29;100211.06;5064118;28;20421;-76
2023/07/20 02:04:34;;;;;;;2.93;1.77;;;;;;;22.00;48.44;100213.66;5062487;28;20466;-77
2023/07/20 02:07:02;;;;;;;4.35;2.03;;;;;;;21.97;48.51;100208.81;5045345;28;20781;-77
2023/07/20 02:09:27;;;;;;;2.30;2.10;;;;;;;21.96;48.54;100205.25;5060007;28;20801;-77
2023/07/20 02:11:52;;;;;;;2.60;2.33;;;;;;;21.92;48.78;100209.81;5067504;28;20402;-77
2023/07/20 02:14:18;;;;;;;3.55;2.30;;;;;;;21.89;48.74;100206.84;5045951;28;20433;-77
2023/07/20 02:16:43;;;;;;;3.23;2.17;;;;;;;21.88;48.86;100205.22;5059692;28;20443;-77
2023/07/20 02:19:08;;;;;;;4.33;2.47;;;;;;;21.90;48.89;100208.53;5063213;28;20399;-77
2023/07/20 02:21:33;;;;;;;4.00;2.17;;;;;;;21.91;48.91;100215.63;5060338;28;20413;-77
2023/07/20 02:23:59;;;;;;;2.20;1.97;;;;;;;21.89;49.00;100210.47;5058886;28;20455;-77
2023/07/20 02:26:25;;;;;;;4.43;2.50;;;;;;;21.92;49.07;100209.81;5039542;28;20398;-77
2023/07/20 02:28:50;;;;;;;3.57;2.10;;;;;;;21.88;49.34;100213.50;5061569;28;20445;-77
2023/07/20 02:31:16;;;;;;;2.58;2.38;;;;;;;21.75;49.65;100207.03;5082025;28;20886;-77
2023/07/20 02:33:41;;;;;;;3.87;2.03;;;;;;;21.79;49.87;100204.44;5060299;28;20419;-77
2023/07/20 02:36:06;;;;;;;3.80;2.27;;;;;;;21.70;49.94;100207.19;5063163;28;20447;-77
2023/07/20 02:38:31;;;;;;;2.30;2.10;;;;;;;21.68;50.08;100203.94;5080860;28;20757;-77
2023/07/20 02:40:57;;;;;;;3.17;2.40;;;;;;;21.70;49.86;100209.97;5059950;28;20417;-77
2023/07/20 02:43:22;;;;;;;4.33;2.53;;;;;;;21.73;49.54;100212.06;5059087;28;20416;-77
2023/07/20 02:45:48;;;;;;;3.47;2.30;;;;;;;21.65;49.89;100205.41;5028990;28;20591;-76
2023/07/20 02:48:13;;;;;;;4.30;2.53;;;;;;;21.65;49.58;100208.16;5073731;28;20404;-77
2023/07/20 02:50:38;;;;;;;4.90;2.40;;;;;;;21.66;49.72;100211.75;5046298;28;21088;-77
2023/07/20 02:53:03;;;;;;;4.90;2.07;;;;;;;21.66;49.79;100214.50;5061192;28;20411;-76
2023/07/20 02:55:29;;;;;;;4.63;2.37;;;;;;;21.63;49.84;100215.97;5073044;28;20403;-77
2023/07/20 02:57:54;;;;;;;3.20;2.20;;;;;;;21.60;49.71;100213.81;5028413;28;20412;-77
2023/07/20 03:00:21;;;;;;;8.13;2.47;;;;;;;21.66;49.76;100208.97;5062656;28;20419;-76
2023/07/20 03:02:49;;;;;;;2.53;2.25;;;;;;;21.69;49.83;100211.09;5066815;28;20393;-76
2023/07/20 03:05:15;;;;;;;2.78;2.42;;;;;;;21.63;49.81;100213.19;5037708;28;20419;-77
2023/07/20 03:07:41;;;;;;;3.07;2.23;;;;;;;21.63;49.86;100213.19;5057348;28;20411;-76
2023/07/20 03:10:09;;;;;;;3.45;2.33;;;;;;;21.59;49.94;100219.69;5056455;28;20503;-76
2023/07/20 03:12:35;;;;;;;2.78;2.58;;;;;;;21.55;50.38;100216.75;5061696;28;20476;-77
2023/07/20 03:15:03;;;;;;;4.22;2.30;;;;;;;21.57;50.26;100222.75;5058418;28;20847;-77
2023/07/20 03:17:28;;;;;;;5.10;2.75;;;;;;;21.53;50.34;100218.22;5073549;28;20413;-76
2023/07/20 03:19:54;;;;;;;2.73;2.40;;;;;;;21.39;50.42;100221.13;5045382;28;20427;-76
2023/07/20 03:22:21;;;;;;;4.27;2.17;;;;;;;21.35;50.62;100222.06;5047903;28;20510;-76
2023/07/20 03:24:47;;;;;;;2.42;2.22;;;;;;;21.35;50.73;100225.66;5045004;28;20535;-76
2023/07/20 03:27:12;;;;;;;4.10;2.60;;;;;;;21.40;50.65;100222.75;5058407;28;20500;-76
2023/07/20 03:29:38;;;;;;;5.05;2.45;;;;;;;21.45;50.83;100227.28;5071185;28;20748;-76
2023/07/20 03:32:03;;;;;;;9.03;2.50;;;;;;;21.63;50.27;100231.69;5037903;28;20416;-76
2023/07/20 03:34:29;;;;;;;2.20;2.10;;;;;;;21.67;50.41;100230.69;5081944;28;20895;-76
2023/07/20 03:36:54;;;;;;;4.28;2.30;;;;;;;21.68;50.26;100228.75;5051173;28;20420;-76
2023/07/20 03:39:23;;;;;;;5.73;2.70;;;;;;;21.66;50.36;100233.78;5063494;28;20766;-76
2023/07/20 03:41:48;;;;;;;5.05;2.80;;;;;;;21.63;50.05;100232.50;5059095;28;20827;-76
2023/07/20 03:44:14;;;;;;;4.70;2.40;;;;;;;21.55;50.39;100230.53;5057040;28;20567;-76
2023/07/20 03:46:40;;;;;;;4.80;2.20;;;;;;;21.52;50.47;100230.38;5033496;28;20442;-76
2023/07/20 03:49:09;;;;;;;5.28;2.78;;;;;;;21.49;50.41;100225.50;5058609;28;20412;-76
2023/07/20 03:51:35;;;;;;;6.85;2.83;;;;;;;21.26;51.04;100232.28;5046440;28;20903;-76
2023/07/20 03:54:03;;;;;;;16.85;2.83;;;;;;;21.21;51.47;100236.81;5059631;28;20426;-76
2023/07/20 03:56:28;;;;;;;5.43;2.83;;;;;;;21.14;51.56;100233.69;5043613;28;20415;-76
2023/07/20 03:58:56;;;;;;;5.53;2.43;;;;;;;21.12;51.45;100233.22;5057224;28;20771;-76
2023/07/20 04:01:24;;;;;;;4.32;2.20;;;;;;;21.10;51.77;100231.91;5062830;28;20420;-76
2023/07/20 04:03:50;;;;;;;11.15;3.33;;;;;;;21.06;51.96;100236.41;5054566;28;20464;-76
2023/07/20 04:06:16;;;;;;;6.15;2.47;;;;;;;21.06;51.97;100239.16;5056123;28;20956;-76
2023/07/20 04:08:42;;;;;;;5.37;2.80;;;;;;;21.04;51.99;100239.47;5041616;28;20490;-76
2023/07/20 04:11:07;;;;;;;5.05;2.60;;;;;;;21.06;51.98;100236.41;5056197;28;20593;-76
2023/07/20 04:13:34;;;;;;;5.80;2.60;;;;;;;21.18;51.82;100239.38;5066229;28;20410;-76
2023/07/20 04:16:00;;;;;;;3.67;2.53;;;;;;;21.22;51.57;100245.88;5067567;28;20408;-75
2023/07/20 04:18:25;;;;;;;4.27;2.77;;;;;;;21.24;52.00;100245.59;5063732;28;20401;-76
2023/07/20 04:20:50;;;;;;;6.63;2.80;;;;;;;21.30;51.73;100244.28;5066703;28;20453;-76
2023/07/20 04:23:18;;;;;;;4.10;3.30;;;;;;;21.34;51.81;100246.06;5070952;28;20419;-76
2023/07/20 04:25:46;;;;;;;7.78;3.80;;;;;;;21.38;51.63;100246.22;5062890;28;20412;-76
2023/07/20 04:28:12;;;;;;;7.40;4.93;;;;;;;21.40;51.50;100239.28;5077194;28;20390;-76
2023/07/20 04:30:39;;;;;;;4.70;3.30;;;;;;;21.41;51.71;100242.84;5077600;28;20399;-76
2023/07/20 04:33:04;;;;;;;4.22;2.90;;;;;;;21.43;51.69;100251.63;5071530;28;20397;-76
2023/07/20 04:35:48;;;;;;;6.47;2.83;;;;;;;21.46;51.68;100248.22;5060856;28;20393;-76
2023/07/20 04:38:17;;;;;;;3.58;2.38;;;;;;;21.46;51.79;100254.53;5074726;28;20386;-76
2023/07/20 04:40:47;;;;;;;3.90;3.00;;;;;;;21.45;51.74;100255.66;5059035;28;20413;-76
2023/07/20 04:43:19;;;;;;;4.53;2.47;;;;;;;21.44;51.80;100244.97;5058449;28;20505;-76
2023/07/20 04:45:44;;;;;;;5.97;2.97;;;;;;;21.47;51.78;100250.63;5062405;28;20910;-76
2023/07/20 04:48:13;;;;;;;5.80;2.87;;;;;;;21.50;52.10;100257.47;5068659;28;20397;-77
2023/07/20 04:50:42;;;;;;;6.38;2.70;;;;;;;21.52;52.02;100249.66;5072474;28;20394;-76
2023/07/20 04:53:10;;;;;;;5.55;3.20;;;;;;;21.50;52.15;100251.94;5090557;28;20865;-76
2023/07/20 04:55:36;;;;;;;5.03;3.17;;;;;;;21.45;52.05;100247.41;5069685;28;20419;-76
2023/07/20 04:58:03;;;;;;;4.28;3.30;;;;;;;21.46;52.19;100253.72;5082301;28;20392;-76
2023/07/20 05:00:29;;;;;;;5.22;3.30;;;;;;;21.41;51.86;100251.91;5081908;28;20421;-75
2023/07/20 05:02:54;;;;;;;4.05;3.20;;;;;;;21.38;52.03;100249.00;5064763;28;20861;-76
2023/07/20 05:05:20;;;;;;;5.60;3.00;;;;;;;21.40;52.26;100253.06;5066392;28;20398;-76
2023/07/20 05:07:45;;;;;;;5.03;2.80;;;;;;;21.39;52.12;100254.19;5064573;28;20811;-79
2023/07/20 05:10:11;;;;;;;4.63;2.73;;;;;;;21.38;52.27;100257.25;5087948;28;20766;-78
2023/07/20 05:12:36;;;;;;;5.87;2.70;;;;;;;21.41;52.45;100257.44;5080934;28;20402;-76
2023/07/20 05:15:03;;;;;;;4.22;2.78;;;;;;;21.40;52.70;100255.84;5065478;28;20459;-79
2023/07/20 05:17:30;;;;;;;3.65;2.58;;;;;;;21.20;52.96;100254.50;5054862;28;20461;-77
2023/07/20 05:19:56;;;;;;;2.88;2.63;;;;;;;21.14;53.07;100260.47;5067185;28;20411;-77
2023/07/20 05:22:21;;;;;;;4.97;2.60;;;;;;;21.13;53.12;100256.91;5061294;28;20411;-76
2023/07/20 05:24:46;;;;;;;6.40;3.13;;;;;;;21.18;53.37;100255.91;5061745;28;20919;-75
2023/07/20 05:27:12;;;;;;;5.33;2.80;;;;;;;21.13;53.64;100258.84;5070654;28;20471;-76
2023/07/20 05:29:37;;;;;;;5.00;2.60;;;;;;;21.16;53.61;100256.25;5055018;28;20884;-76
2023/07/20 05:32:03;;;;;;;10.67;3.13;;;;;;;21.19;53.61;100254.78;5065013;28;20413;-75
2023/07/20 05:34:28;;;;;;;4.50;2.80;;;;;;;21.18;53.65;100248.47;5054212;28;20948;-79
2023/07/20 05:36:54;;;;;;;3.33;2.90;;;;;;;21.14;53.85;100255.75;5073360;28;21675;-77
2023/07/20 05:39:19;;;;;;;6.45;2.80;;;;;;;21.08;54.01;100256.19;5074279;28;20506;-77
2023/07/20 05:41:45;;;;;;;7.05;2.67;;;;;;;21.20;53.99;100243.47;5043381;28;20438;-78
2023/07/20 05:44:10;;;;;;;8.63;2.83;;;;;;;21.24;53.86;100251.88;5067823;28;20497;-78
2023/07/20 05:46:35;;;;;;;3.40;2.70;;;;;;;21.17;53.90;100255.09;5061685;28;20437;-78
2023/07/20 05:49:01;;;;;;;4.83;2.87;;;;;;;21.17;53.98;100251.56;5053357;28;20459;-78
2023/07/20 05:51:27;;;;;;;6.13;2.50;;;;;;;21.26;53.32;100252.38;5052932;28;20388;-78
2023/07/20 05:53:52;;;;;;;4.40;2.63;;;;;;;21.29;53.46;100254.50;5053023;28;20873;-78
2023/07/20 05:56:18;;;;;;;5.50;2.47;;;;;;;21.30;53.67;100258.06;5069252;28;20409;-78
2023/07/20 05:58:43;;;;;;;3.85;2.28;;;;;;;21.40;53.76;100263.28;5063137;28;20488;-78
2023/07/20 06:01:08;;;;;;;5.20;2.60;;;;;;;21.35;53.89;100261.47;5060438;28;20913;-77
2023/07/20 06:03:34;;;;;;;2.90;2.53;;;;;;;21.40;53.74;100253.06;5061657;28;20396;-77
2023/07/20 06:06:04;;;;;;;4.20;2.85;;;;;;;21.42;53.61;100256.31;5057563;28;20855;-77
2023/07/20 06:08:30;;;;;;;4.05;2.88;;;;;;;21.36;53.96;100254.84;5062849;28;20409;-77
2023/07/20 06:10:56;;;;;;;5.70;2.83;;;;;;;21.34;54.12;100253.53;5053241;28;20393;-78
2023/07/20 06:13:21;;;;;;;4.95;2.72;;;;;;;21.32;54.10;100253.03;5070750;28;20704;-77
2023/07/20 06:15:47;;;;;;;2.80;2.20;;;;;;;21.27;54.29;100258.72;5052883;28;20409;-77
2023/07/20 06:18:13;;;;;;;3.97;2.60;;;;;;;21.30;54.40;100264.41;5058130;28;20467;-77
2023/07/20 06:20:38;;;;;;;8.13;2.80;;;;;;;21.31;54.50;100271.50;5069173;28;20432;-77
2023/07/20 06:23:04;;;;;;;5.50;2.67;;;;;;;21.36;54.62;100270.56;5056804;28;20492;-77
2023/07/20 06:25:29;;;;;;;4.43;2.57;;;;;;;21.47;54.46;100264.41;5055642;28;20392;-77
2023/07/20 06:27:55;;;;;;;2.50;2.30;;;;;;;21.55;54.15;100265.56;5064559;28;20407;-77
2023/07/20 06:30:21;;;;;;;7.18;2.80;;;;;;;21.56;54.12;100269.97;5068283;28;20874;-76
2023/07/20 06:32:47;;;;;;;5.27;2.67;;;;;;;21.47;54.38;100266.38;5069524;28;20410;-76
2023/07/20 06:35:13;;;;;;;5.93;2.47;;;;;;;21.54;54.38;100267.50;5053933;28;20437;-76
2023/07/20 06:37:38;;;;;;;4.25;2.40;;;;;;;21.74;54.05;100269.66;5059050;28;20439;-76
2023/07/20 06:40:04;;;;;;;2.40;2.20;;;;;;;21.82;53.81;100267.22;5069315;28;20913;-76
2023/07/20 06:42:30;;;;;;;4.75;2.58;;;;;;;21.75;53.86;100270.47;5071615;28;20831;-76
2023/07/20 06:44:56;;;;;;;5.93;2.65;;;;;;;21.82;54.04;100273.56;5055990;28;20950;-76
2023/07/20 06:47:22;;;;;;;4.78;2.45;;;;;;;21.87;54.23;100273.38;5066357;28;20385;-77
2023/07/20 06:49:47;;;;;;;3.80;2.40;;;;;;;22.00;53.69;100271.63;5071393;28;20418;-76
2023/07/20 06:52:13;;;;;;;3.42;2.20;;;;;;;22.07;53.58;100274.72;5063648;28;20401;-77
2023/07/20 06:54:38;;;;;;;2.77;2.40;;;;;;;22.16;53.37;100272.78;5034317;28;20480;-76
2023/07/20 06:57:05;;;;;;;4.70;3.00;;;;;;;22.23;52.96;100268.34;5060419;28;20411;-75
2023/07/20 06:59:30;;;;;;;4.75;2.40;;;;;;;22.19;53.05;100269.34;5081553;28;20410;-76
2023/07/20 07:01:55;;;;;;;3.07;2.43;;;;;;;22.20;52.94;100270.97;5059937;28;20385;-76
2023/07/20 07:04:21;;;;;;;5.18;2.10;;;;;;;22.24;52.79;100269.19;5062305;28;20777;-76
2023/07/20 07:06:46;;;;;;;3.97;2.40;;;;;;;22.18;52.86;100265.78;5052018;28;20398;-76
2023/07/20 07:09:12;;;;;;;4.50;2.50;;;;;;;22.24;52.31;100263.66;5057577;28;20376;-76
2023/07/20 07:11:37;;;;;;;6.33;2.67;;;;;;;22.30;52.42;100264.28;5027974;28;20399;-76
2023/07/20 07:14:02;;;;;;;6.63;2.33;;;;;;;22.39;52.02;100268.69;5062504;28;20396;-77
2023/07/20 07:16:28;;;;;;;2.67;2.10;;;;;;;22.56;52.12;100268.63;5059461;28;20412;-75
2023/07/20 07:18:53;;;;;;;2.77;2.00;;;;;;;22.75;51.66;100274.59;5066249;28;20390;-76
2023/07/20 07:21:18;;;;;;;2.60;2.40;;;;;;;22.84;51.40;100266.28;5067484;28;20878;-76
2023/07/20 07:23:45;;;;;;;7.80;2.13;;;;;;;22.88;50.52;100274.75;5075897;28;20413;-76
2023/07/20 07:26:10;;;;;;;2.72;2.50;;;;;;;22.93;50.24;100271.78;5052279;28;20748;-76
2023/07/20 07:28:36;;;;;;;6.93;2.30;;;;;;;22.96;50.24;100273.88;5065916;28;20392;-76
2023/07/20 07:31:05;;;;;;;3.28;2.22;;;;;;;22.84;50.90;100276.53;5061689;28;20389;-75
2023/07/20 07:33:32;;;;;;;3.15;2.25;;;;;;;22.85;51.19;100272.63;5061309;28;20406;-75
2023/07/20 07:35:57;;;;;;;2.95;1.92;;;;;;;22.89;51.24;100279.09;5037426;28;20409;-75
2023/07/20 07:38:23;;;;;;;6.20;2.53;;;;;;;22.85;51.09;100270.69;5048755;28;20596;-75
2023/07/20 07:40:48;;;;;;;2.80;2.17;;;;;;;22.85;50.56;100265.16;5061384;28;20421;-76
2023/07/20 07:43:14;;;;;;;4.60;2.22;;;;;;;22.84;50.47;100277.34;5051745;28;20512;-76
2023/07/20 07:45:40;;;;;;;2.60;2.40;;;;;;;22.80;51.50;100275.56;5051069;28;20922;-76
2023/07/20 07:48:06;;;;;;;2.47;2.00;;;;;;;22.79;50.30;100272.00;5069078;28;20461;-76
2023/07/20 07:50:33;;;;;;;4.97;1.95;;;;;;;22.73;50.15;100282.41;5053585;28;20842;-75
2023/07/20 07:52:58;;;;;;;5.77;2.00;;;;;;;22.71;50.04;100276.41;5071362;28;20431;-76
2023/07/20 07:55:24;;;;;;;2.15;1.92;;;;;;;22.75;50.11;100282.09;5053348;28;20424;-75
2023/07/20 07:57:50;;;;;;;4.93;2.22;;;;;;;22.80;50.08;100275.56;5068543;28;20423;-76
2023/07/20 08:00:18;;;;;;;4.07;2.13;;;;;;;22.80;49.50;100270.03;5051389;28;20401;-76
2023/07/20 08:02:44;;;;;;;2.13;1.83;;;;;;;22.80;49.76;100270.84;5061446;28;20479;-76
2023/07/20 08:05:10;;;;;;;3.90;2.22;;;;;;;22.85;49.47;100267.13;5057337;28;20386;-76
2023/07/20 08:07:36;;;;;;;2.90;1.88;;;;;;;22.81;49.42;100269.72;5053674;28;20393;-76
2023/07/20 08:10:02;;;;;;;6.43;2.17;;;;;;;22.82;49.52;100263.03;5047273;28;20466;-76
2023/07/20 08:12:28;;;;;;;4.40;2.20;;;;;;;22.89;49.76;100262.53;5040562;28;20395;-75
2023/07/20 08:14:53;;;;;;;4.73;2.00;;;;;;;22.94;49.48;100262.34;5067597;28;20407;-75
2023/07/20 08:17:19;;;;;;;4.97;2.10;;;;;;;22.93;50.13;100269.81;5044064;28;20403;-75
2023/07/20 08:19:46;;;;;;;5.87;2.00;;;;;;;23.04;49.65;100261.97;5067302;28;20408;-76
2023/07/20 08:22:12;;;;;;;4.72;2.08;;;;;;;23.17;49.12;100261.75;5052029;28;20948;-75
2023/07/20 08:24:40;;;;;;;4.70;1.90;;;;;;;23.28;49.28;100268.50;5071653;28;20408;-78
2023/07/20 08:27:06;;;;;;;3.90;1.70;;;;;;;23.31;49.34;100264.28;5055446;28;20967;-75
2023/07/20 08:29:31;;;;;;;2.27;2.07;;;;;;;23.40;49.57;100267.84;5079797;28;20505;-75
2023/07/20 08:31:56;;;;;;;3.07;1.80;;;;;;;23.49;48.47;100263.06;5045072;28;20486;-75
2023/07/20 08:34:21;;;;;;;4.27;2.10;;;;;;;23.60;48.33;100269.81;5074953;28;20736;-74
2023/07/20 08:36:47;;;;;;;3.87;2.00;;;;;;;23.76;47.91;100261.72;5069435;28;20519;-75
2023/07/20 08:39:13;;;;;;;3.58;1.90;;;;;;;23.94;46.99;100270.72;5055184;28;20931;-75
2023/07/20 08:41:39;;;;;;;5.60;1.93;;;;;;;24.13;47.32;100271.06;5043740;28;20941;-75
2023/07/20 08:44:05;;;;;;;1.90;1.70;;;;;;;24.28;46.83;100271.22;5066283;28;20395;-75
2023/07/20 08:46:31;;;;;;;4.03;1.63;;;;;;;24.20;46.35;100280.41;5060169;28;20418;-74
2023/07/20 08:48:57;;;;;;;5.30;1.70;;;;;;;23.99;45.77;100273.25;5074097;28;20480;-75
2023/07/20 08:51:23;;;;;;;2.67;1.60;;;;;;;23.84;46.21;100271.13;5060412;28;20396;-75
2023/07/20 08:53:51;;;;;;;3.10;1.90;;;;;;;23.88;46.19;100267.31;5064690;28;20611;-75
2023/07/20 08:56:16;;;;;;;5.35;1.70;;;;;;;23.97;45.54;100267.25;5037232;28;20903;-75
2023/07/20 08:58:43;;;;;;;2.40;1.70;;;;;;;24.04;45.49;100267.53;5070533;28;20387;-75
2023/07/20 09:01:10;;;;;;;6.55;1.90;;;;;;;24.01;45.06;100265.41;5059749;28;20461;-75
2023/07/20 09:03:39;;;;;;;4.30;1.42;;;;;;;23.93;45.48;100269.09;5072767;28;20400;-75
2023/07/20 09:06:04;;;;;;;3.70;1.75;;;;;;;23.72;45.71;100269.06;5060652;28;20405;-76
2023/07/20 09:08:30;;;;;;;4.40;1.60;;;;;;;23.97;44.69;100258.97;5055312;28;20381;-75
2023/07/20 09:10:55;;;;;;;2.97;1.50;;;;;;;24.26;44.40;100267.19;5068693;28;20409;-75
2023/07/20 09:13:20;;;;;;;2.53;1.57;;;;;;;24.52;43.84;100269.69;5054221;28;20436;-75
2023/07/20 09:15:47;;;;;;;5.03;1.67;;;;;;;24.59;43.47;100267.97;5058759;28;20409;-75
2023/07/20 09:18:23;;;;;;;4.18;1.50;;;;;;;24.69;43.15;100263.97;5054426;28;20432;-75
2023/07/20 09:20:49;;;;;;;3.55;1.63;;;;;;;24.57;42.90;100255.59;5067775;28;20500;-75
2023/07/20 09:23:14;;;;;;;2.03;1.70;;;;;;;24.69;43.06;100256.47;5053942;28;20960;-75
2023/07/20 09:25:40;;;;;;;2.10;1.48;;;;;;;25.10;42.93;100257.44;5053925;28;20485;-75
2023/07/20 09:28:06;;;;;;;2.22;1.50;;;;;;;25.39;42.92;100253.63;5054514;28;20401;-75
2023/07/20 09:30:31;;;;;;;3.30;1.83;;;;;;;25.65;42.04;100254.84;5069261;28;20405;-75
2023/07/20 09:32:58;;;;;;;1.77;1.50;;;;;;;25.75;41.37;100251.59;5060923;28;20403;-74
2023/07/20 09:35:24;;;;;;;5.22;2.10;;;;;;;25.79;41.51;100258.06;5061611;28;20401;-74
2023/07/20 09:38:01;;;;;;;3.03;1.87;;;;;;;25.86;41.21;100259.44;5054047;28;20869;-74
